sensor_id;sensor_type;location;lat;lon;timestamp;P1;durP1;ratioP1;P2;durP2;ratioP2
71423;SDS011;59240;51.370;-0.486;2023-12-22T00:02:21;7.15;;;1.92;;
71423;SDS011;59240;51.370;-0.486;2023-12-22T00:07:30;15.25;;;3.40;;
71423;SDS011;59240;51.370;-0.486;2023-12-22T00:12:29;9.35;;;2.13;;
71423;SDS011;59240;51.370;-0.486;2023-12-22T00:17:28;11.32;;;2.63;;
71423;SDS011;59240;51.370;-0.486;2023-12-22T00:22:34;5.90;;;1.95;;
71423;SDS011;59240;51.370;-0.486;2023-12-22T00:27:31;13.23;;;2.15;;
71423;SDS011;59240;51.370;-0.486;2023-12-22T00:32:31;6.20;;;1.83;;
71423;SDS011;59240;51.370;-0.486;2023-12-22T00:37:28;8.73;;;1.83;;
71423;SDS011;59240;51.370;-0.486;2023-12-22T00:42:28;4.18;;;1.23;;
71423;SDS011;59240;51.370;-0.486;2023-12-22T00:47:25;3.28;;;1.42;;
71423;SDS011;59240;51.370;-0.486;2023-12-22T00:52:22;11.25;;;1.35;;
71423;SDS011;59240;51.370;-0.486;2023-12-22T00:57:20;4.75;;;0.73;;
71423;SDS011;59240;51.370;-0.486;2023-12-22T01:02:17;3.72;;;0.80;;
71423;SDS011;59240;51.370;-0.486;2023-12-22T01:07:14;3.00;;;0.70;;
71423;SDS011;59240;51.370;-0.486;2023-12-22T01:12:12;2.58;;;0.85;;
71423;SDS011;59240;51.370;-0.486;2023-12-22T01:17:09;5.75;;;0.93;;
71423;SDS011;59240;51.370;-0.486;2023-12-22T01:22:05;7.88;;;0.85;;
71423;SDS011;59240;51.370;-0.486;2023-12-22T01:27:09;6.07;;;1.08;;
71423;SDS011;59240;51.370;-0.486;2023-12-22T01:32:07;5.28;;;1.20;;
71423;SDS011;59240;51.370;-0.486;2023-12-22T01:37:04;7.28;;;1.73;;
71423;SDS011;59240;51.370;-0.486;2023-12-22T01:42:01;8.45;;;1.85;;
71423;SDS011;59240;51.370;-0.486;2023-12-22T01:46:58;4.22;;;1.02;;
71423;SDS011;59240;51.370;-0.486;2023-12-22T01:51:56;8.77;;;3.17;;
71423;SDS011;59240;51.370;-0.486;2023-12-22T01:56:53;5.57;;;1.08;;
71423;SDS011;59240;51.370;-0.486;2023-12-22T02:01:51;2.58;;;1.13;;
71423;SDS011;59240;51.370;-0.486;2023-12-22T02:06:49;10.75;;;1.35;;
71423;SDS011;59240;51.370;-0.486;2023-12-22T02:11:47;9.20;;;1.55;;
71423;SDS011;59240;51.370;-0.486;2023-12-22T02:22:00;9.35;;;1.38;;
71423;SDS011;59240;51.370;-0.486;2023-12-22T02:27:05;2.55;;;0.80;;
71423;SDS011;59240;51.370;-0.486;2023-12-22T02:32:05;6.20;;;1.25;;
71423;SDS011;59240;51.370;-0.486;2023-12-22T02:37:07;4.80;;;1.13;;
71423;SDS011;59240;51.370;-0.486;2023-12-22T02:42:07;7.03;;;1.23;;
71423;SDS011;59240;51.370;-0.486;2023-12-22T02:47:05;4.05;;;1.15;;
71423;SDS011;59240;51.370;-0.486;2023-12-22T02:52:01;4.72;;;0.95;;
71423;SDS011;59240;51.370;-0.486;2023-12-22T02:56:58;2.50;;;0.65;;
71423;SDS011;59240;51.370;-0.486;2023-12-22T03:01:56;1.33;;;1.08;;
71423;SDS011;59240;51.370;-0.486;2023-12-22T03:06:53;2.22;;;0.95;;
71423;SDS011;59240;51.370;-0.486;2023-12-22T03:11:50;4.15;;;0.93;;
71423;SDS011;59240;51.370;-0.486;2023-12-22T03:16:51;4.35;;;0.60;;
71423;SDS011;59240;51.370;-0.486;2023-12-22T03:21:47;6.20;;;1.00;;
71423;SDS011;59240;51.370;-0.486;2023-12-22T03:26:45;3.03;;;0.43;;
71423;SDS011;59240;51.370;-0.486;2023-12-22T03:31:43;2.50;;;0.52;;
71423;SDS011;59240;51.370;-0.486;2023-12-22T03:36:40;2.58;;;0.77;;
71423;SDS011;59240;51.370;-0.486;2023-12-22T03:41:37;0.88;;;0.55;;
71423;SDS011;59240;51.370;-0.486;2023-12-22T03:46:34;1.95;;;0.57;;
71423;SDS011;59240;51.370;-0.486;2023-12-22T03:51:31;0.43;;;0.30;;
71423;SDS011;59240;51.370;-0.486;2023-12-22T03:56:28;0.75;;;0.55;;
71423;SDS011;59240;51.370;-0.486;2023-12-22T04:01:24;1.77;;;0.77;;
71423;SDS011;59240;51.370;-0.486;2023-12-22T04:06:23;2.67;;;0.65;;
71423;SDS011;59240;51.370;-0.486;2023-12-22T04:11:20;1.45;;;0.73;;
71423;SDS011;59240;51.370;-0.486;2023-12-22T04:16:17;1.92;;;0.65;;
71423;SDS011;59240;51.370;-0.486;2023-12-22T04:21:14;1.30;;;0.60;;
71423;SDS011;59240;51.370;-0.486;2023-12-22T04:26:11;2.85;;;0.68;;
71423;SDS011;59240;51.370;-0.486;2023-12-22T04:31:08;2.90;;;1.13;;
71423;SDS011;59240;51.370;-0.486;2023-12-22T04:36:06;4.72;;;0.73;;
71423;SDS011;59240;51.370;-0.486;2023-12-22T04:41:06;2.50;;;0.60;;
71423;SDS011;59240;51.370;-0.486;2023-12-22T04:46:03;3.70;;;0.60;;
71423;SDS011;59240;51.370;-0.486;2023-12-22T04:51:00;2.75;;;0.88;;
71423;SDS011;59240;51.370;-0.486;2023-12-22T04:55:56;0.93;;;0.50;;
71423;SDS011;59240;51.370;-0.486;2023-12-22T05:00:54;2.17;;;0.52;;
71423;SDS011;59240;51.370;-0.486;2023-12-22T05:05:51;2.95;;;0.40;;
71423;SDS011;59240;51.370;-0.486;2023-12-22T05:10:48;1.00;;;0.40;;
71423;SDS011;59240;51.370;-0.486;2023-12-22T05:15:45;3.30;;;0.55;;
71423;SDS011;59240;51.370;-0.486;2023-12-22T05:20:42;2.60;;;0.47;;
71423;SDS011;59240;51.370;-0.486;2023-12-22T05:25:40;1.65;;;0.50;;
71423;SDS011;59240;51.370;-0.486;2023-12-22T05:30:37;2.33;;;0.95;;
71423;SDS011;59240;51.370;-0.486;2023-12-22T05:35:34;2.55;;;0.40;;
71423;SDS011;59240;51.370;-0.486;2023-12-22T05:40:35;3.63;;;0.45;;
71423;SDS011;59240;51.370;-0.486;2023-12-22T05:45:32;0.73;;;0.40;;
71423;SDS011;59240;51.370;-0.486;2023-12-22T05:50:29;0.65;;;0.40;;
71423;SDS011;59240;51.370;-0.486;2023-12-22T05:55:26;1.20;;;0.40;;
71423;SDS011;59240;51.370;-0.486;2023-12-22T06:00:23;2.88;;;0.40;;
71423;SDS011;59240;51.370;-0.486;2023-12-22T06:05:20;2.00;;;0.57;;
71423;SDS011;59240;51.370;-0.486;2023-12-22T06:10:18;2.75;;;0.45;;
71423;SDS011;59240;51.370;-0.486;2023-12-22T06:15:15;2.38;;;0.40;;
71423;SDS011;59240;51.370;-0.486;2023-12-22T06:20:12;0.20;;;0.20;;
71423;SDS011;59240;51.370;-0.486;2023-12-22T06:25:08;1.52;;;0.50;;
71423;SDS011;59240;51.370;-0.486;2023-12-22T06:30:06;5.82;;;0.60;;
71423;SDS011;59240;51.370;-0.486;2023-12-22T06:35:05;3.03;;;0.43;;
71423;SDS011;59240;51.370;-0.486;2023-12-22T06:40:04;0.43;;;0.22;;
71423;SDS011;59240;51.370;-0.486;2023-12-22T06:45:02;1.55;;;0.38;;
71423;SDS011;59240;51.370;-0.486;2023-12-22T06:49:59;0.32;;;0.30;;
71423;SDS011;59240;51.370;-0.486;2023-12-22T06:54:56;1.73;;;0.35;;
71423;SDS011;59240;51.370;-0.486;2023-12-22T06:59:53;0.20;;;0.20;;
71423;SDS011;59240;51.370;-0.486;2023-12-22T07:10:06;0.15;;;0.15;;
71423;SDS011;59240;51.370;-0.486;2023-12-22T07:15:03;1.00;;;0.40;;
71423;SDS011;59240;51.370;-0.486;2023-12-22T07:20:00;2.00;;;0.28;;
71423;SDS011;59240;51.370;-0.486;2023-12-22T07:25:00;2.72;;;0.40;;
71423;SDS011;59240;51.370;-0.486;2023-12-22T07:29:56;0.35;;;0.20;;
71423;SDS011;59240;51.370;-0.486;2023-12-22T07:34:53;1.15;;;0.35;;
71423;SDS011;59240;51.370;-0.486;2023-12-22T07:39:51;1.98;;;0.20;;
71423;SDS011;59240;51.370;-0.486;2023-12-22T07:44:48;2.08;;;0.50;;
71423;SDS011;59240;51.370;-0.486;2023-12-22T07:49:45;0.60;;;0.35;;
71423;SDS011;59240;51.370;-0.486;2023-12-22T07:54:43;2.13;;;0.20;;
71423;SDS011;59240;51.370;-0.486;2023-12-22T07:59:40;0.28;;;0.28;;
71423;SDS011;59240;51.370;-0.486;2023-12-22T08:04:37;1.48;;;0.40;;
71423;SDS011;59240;51.370;-0.486;2023-12-22T08:09:34;1.65;;;0.40;;
71423;SDS011;59240;51.370;-0.486;2023-12-22T08:14:31;1.17;;;0.50;;
71423;SDS011;59240;51.370;-0.486;2023-12-22T08:19:28;0.25;;;0.20;;
71423;SDS011;59240;51.370;-0.486;2023-12-22T08:24:27;1.55;;;0.40;;
71423;SDS011;59240;51.370;-0.486;2023-12-22T08:29:27;0.13;;;0.13;;
71423;SDS011;59240;51.370;-0.486;2023-12-22T08:34:31;1.45;;;0.40;;
71423;SDS011;59240;51.370;-0.486;2023-12-22T08:39:28;1.58;;;0.40;;
71423;SDS011;59240;51.370;-0.486;2023-12-22T08:44:28;1.23;;;0.30;;
71423;SDS011;59240;51.370;-0.486;2023-12-22T08:49:27;0.93;;;0.60;;
71423;SDS011;59240;51.370;-0.486;2023-12-22T08:54:24;2.60;;;0.52;;
71423;SDS011;59240;51.370;-0.486;2023-12-22T08:59:22;2.03;;;0.55;;
71423;SDS011;59240;51.370;-0.486;2023-12-22T09:04:19;1.75;;;0.50;;
71423;SDS011;59240;51.370;-0.486;2023-12-22T09:09:23;1.63;;;0.38;;
71423;SDS011;59240;51.370;-0.486;2023-12-22T09:14:23;0.95;;;0.32;;
71423;SDS011;59240;51.370;-0.486;2023-12-22T09:19:47;1.27;;;0.40;;
71423;SDS011;59240;51.370;-0.486;2023-12-22T09:24:44;3.50;;;0.45;;
71423;SDS011;59240;51.370;-0.486;2023-12-22T09:29:47;0.90;;;0.30;;
71423;SDS011;59240;51.370;-0.486;2023-12-22T09:34:57;0.43;;;0.22;;
71423;SDS011;59240;51.370;-0.486;2023-12-22T09:39:58;6.18;;;1.05;;
71423;SDS011;59240;51.370;-0.486;2023-12-22T09:45:04;1.48;;;0.73;;
71423;SDS011;59240;51.370;-0.486;2023-12-22T09:50:22;2.95;;;0.73;;
71423;SDS011;59240;51.370;-0.486;2023-12-22T09:55:23;8.23;;;0.90;;
71423;SDS011;59240;51.370;-0.486;2023-12-22T10:00:30;2.17;;;0.73;;
71423;SDS011;59240;51.370;-0.486;2023-12-22T10:05:28;0.80;;;0.55;;
71423;SDS011;59240;51.370;-0.486;2023-12-22T10:10:27;2.92;;;0.95;;
71423;SDS011;59240;51.370;-0.486;2023-12-22T10:15:28;2.80;;;0.63;;
71423;SDS011;59240;51.370;-0.486;2023-12-22T10:20:28;4.35;;;0.77;;
71423;SDS011;59240;51.370;-0.486;2023-12-22T10:25:28;5.80;;;1.02;;
71423;SDS011;59240;51.370;-0.486;2023-12-22T10:30:31;3.03;;;1.30;;
71423;SDS011;59240;51.370;-0.486;2023-12-22T10:35:29;3.45;;;1.52;;
71423;SDS011;59240;51.370;-0.486;2023-12-22T10:40:26;4.57;;;1.02;;
71423;SDS011;59240;51.370;-0.486;2023-12-22T10:45:24;7.68;;;1.38;;
71423;SDS011;59240;51.370;-0.486;2023-12-22T10:50:21;9.35;;;1.92;;
71423;SDS011;59240;51.370;-0.486;2023-12-22T10:55:21;1.88;;;0.90;;
71423;SDS011;59240;51.370;-0.486;2023-12-22T11:00:20;4.30;;;0.85;;
71423;SDS011;59240;51.370;-0.486;2023-12-22T11:05:18;3.85;;;1.40;;
71423;SDS011;59240;51.370;-0.486;2023-12-22T11:10:18;3.90;;;0.95;;
71423;SDS011;59240;51.370;-0.486;2023-12-22T11:15:20;6.97;;;1.13;;
71423;SDS011;59240;51.370;-0.486;2023-12-22T11:20:18;5.15;;;1.40;;
71423;SDS011;59240;51.370;-0.486;2023-12-22T11:25:17;5.32;;;1.08;;
71423;SDS011;59240;51.370;-0.486;2023-12-22T11:30:15;6.63;;;1.60;;
71423;SDS011;59240;51.370;-0.486;2023-12-22T11:35:13;3.17;;;1.10;;
71423;SDS011;59240;51.370;-0.486;2023-12-22T11:40:11;11.75;;;1.60;;
71423;SDS011;59240;51.370;-0.486;2023-12-22T11:45:09;8.27;;;1.52;;
71423;SDS011;59240;51.370;-0.486;2023-12-22T11:50:11;5.15;;;1.63;;
71423;SDS011;59240;51.370;-0.486;2023-12-22T11:55:08;5.03;;;1.25;;
71423;SDS011;59240;51.370;-0.486;2023-12-22T12:00:09;6.43;;;1.35;;
71423;SDS011;59240;51.370;-0.486;2023-12-22T12:05:30;5.05;;;0.90;;
71423;SDS011;59240;51.370;-0.486;2023-12-22T12:15:33;4.43;;;1.20;;
71423;SDS011;59240;51.370;-0.486;2023-12-22T12:20:31;3.50;;;1.40;;
71423;SDS011;59240;51.370;-0.486;2023-12-22T12:25:29;4.82;;;1.20;;
71423;SDS011;59240;51.370;-0.486;2023-12-22T12:30:32;7.63;;;2.28;;
71423;SDS011;59240;51.370;-0.486;2023-12-22T12:35:31;3.25;;;1.33;;
71423;SDS011;59240;51.370;-0.486;2023-12-22T12:40:35;5.72;;;1.10;;
71423;SDS011;59240;51.370;-0.486;2023-12-22T12:45:35;6.82;;;1.23;;
71423;SDS011;59240;51.370;-0.486;2023-12-22T12:50:32;5.45;;;1.00;;
71423;SDS011;59240;51.370;-0.486;2023-12-22T12:55:30;3.60;;;1.50;;
71423;SDS011;59240;51.370;-0.486;2023-12-22T13:00:30;2.65;;;1.60;;
71423;SDS011;59240;51.370;-0.486;2023-12-22T13:05:28;5.15;;;1.08;;
71423;SDS011;59240;51.370;-0.486;2023-12-22T13:10:25;1.92;;;1.08;;
71423;SDS011;59240;51.370;-0.486;2023-12-22T13:15:24;4.38;;;0.80;;
71423;SDS011;59240;51.370;-0.486;2023-12-22T13:20:21;1.75;;;0.85;;
71423;SDS011;59240;51.370;-0.486;2023-12-22T13:25:18;2.53;;;0.70;;
71423;SDS011;59240;51.370;-0.486;2023-12-22T13:30:36;4.18;;;0.85;;
71423;SDS011;59240;51.370;-0.486;2023-12-22T13:35:38;6.07;;;1.10;;
71423;SDS011;59240;51.370;-0.486;2023-12-22T13:40:39;2.80;;;0.85;;
71423;SDS011;59240;51.370;-0.486;2023-12-22T13:45:40;4.28;;;1.30;;
71423;SDS011;59240;51.370;-0.486;2023-12-22T13:50:38;3.15;;;0.93;;
71423;SDS011;59240;51.370;-0.486;2023-12-22T13:55:38;3.83;;;1.52;;
71423;SDS011;59240;51.370;-0.486;2023-12-22T14:00:49;3.10;;;1.00;;
71423;SDS011;59240;51.370;-0.486;2023-12-22T14:05:49;7.20;;;1.13;;
71423;SDS011;59240;51.370;-0.486;2023-12-22T14:10:47;3.40;;;1.27;;
71423;SDS011;59240;51.370;-0.486;2023-12-22T14:15:45;3.65;;;0.80;;
71423;SDS011;59240;51.370;-0.486;2023-12-22T14:25:43;5.07;;;0.60;;
71423;SDS011;59240;51.370;-0.486;2023-12-22T14:30:40;4.32;;;1.13;;
71423;SDS011;59240;51.370;-0.486;2023-12-22T14:35:37;4.28;;;1.00;;
71423;SDS011;59240;51.370;-0.486;2023-12-22T14:40:34;2.55;;;1.23;;
71423;SDS011;59240;51.370;-0.486;2023-12-22T14:45:33;2.63;;;1.23;;
71423;SDS011;59240;51.370;-0.486;2023-12-22T14:50:31;7.20;;;1.30;;
71423;SDS011;59240;51.370;-0.486;2023-12-22T14:55:28;2.40;;;0.70;;
71423;SDS011;59240;51.370;-0.486;2023-12-22T15:00:25;6.50;;;1.27;;
71423;SDS011;59240;51.370;-0.486;2023-12-22T15:05:24;3.75;;;0.85;;
71423;SDS011;59240;51.370;-0.486;2023-12-22T15:10:32;3.83;;;0.88;;
71423;SDS011;59240;51.370;-0.486;2023-12-22T15:15:29;2.63;;;0.82;;
71423;SDS011;59240;51.370;-0.486;2023-12-22T15:20:26;3.55;;;0.93;;
71423;SDS011;59240;51.370;-0.486;2023-12-22T15:25:23;4.03;;;0.90;;
71423;SDS011;59240;51.370;-0.486;2023-12-22T15:30:19;3.10;;;0.65;;
71423;SDS011;59240;51.370;-0.486;2023-12-22T15:35:16;5.32;;;1.10;;
71423;SDS011;59240;51.370;-0.486;2023-12-22T15:40:13;5.18;;;1.40;;
71423;SDS011;59240;51.370;-0.486;2023-12-22T15:45:10;4.80;;;0.68;;
71423;SDS011;59240;51.370;-0.486;2023-12-22T15:50:07;4.85;;;1.00;;
71423;SDS011;59240;51.370;-0.486;2023-12-22T15:55:07;5.47;;;0.88;;
71423;SDS011;59240;51.370;-0.486;2023-12-22T16:00:06;3.75;;;0.75;;
71423;SDS011;59240;51.370;-0.486;2023-12-22T16:05:03;3.13;;;0.85;;
71423;SDS011;59240;51.370;-0.486;2023-12-22T16:10:00;5.63;;;0.80;;
71423;SDS011;59240;51.370;-0.486;2023-12-22T16:14:57;4.63;;;0.77;;
71423;SDS011;59240;51.370;-0.486;2023-12-22T16:19:58;3.90;;;0.75;;
71423;SDS011;59240;51.370;-0.486;2023-12-22T16:24:55;2.38;;;0.68;;
71423;SDS011;59240;51.370;-0.486;2023-12-22T16:29:52;1.42;;;0.65;;
71423;SDS011;59240;51.370;-0.486;2023-12-22T16:34:51;3.53;;;1.35;;
71423;SDS011;59240;51.370;-0.486;2023-12-22T16:39:49;3.50;;;0.95;;
71423;SDS011;59240;51.370;-0.486;2023-12-22T16:44:47;5.20;;;1.10;;
71423;SDS011;59240;51.370;-0.486;2023-12-22T16:49:44;1.95;;;0.82;;
71423;SDS011;59240;51.370;-0.486;2023-12-22T16:54:43;2.17;;;0.90;;
71423;SDS011;59240;51.370;-0.486;2023-12-22T16:59:40;6.22;;;1.02;;
71423;SDS011;59240;51.370;-0.486;2023-12-22T17:04:38;2.25;;;0.63;;
71423;SDS011;59240;51.370;-0.486;2023-12-22T17:09:35;2.50;;;0.93;;
71423;SDS011;59240;51.370;-0.486;2023-12-22T17:14:35;2.50;;;0.95;;
71423;SDS011;59240;51.370;-0.486;2023-12-22T17:19:32;5.57;;;1.25;;
71423;SDS011;59240;51.370;-0.486;2023-12-22T17:24:31;5.03;;;0.90;;
71423;SDS011;59240;51.370;-0.486;2023-12-22T17:29:27;4.18;;;0.80;;
71423;SDS011;59240;51.370;-0.486;2023-12-22T17:34:24;5.75;;;0.70;;
71423;SDS011;59240;51.370;-0.486;2023-12-22T17:39:21;4.10;;;1.13;;
71423;SDS011;59240;51.370;-0.486;2023-12-22T17:44:18;3.83;;;1.20;;
71423;SDS011;59240;51.370;-0.486;2023-12-22T17:49:15;2.80;;;1.35;;
71423;SDS011;59240;51.370;-0.486;2023-12-22T17:54:11;3.95;;;1.40;;
71423;SDS011;59240;51.370;-0.486;2023-12-22T17:59:08;4.13;;;1.58;;
71423;SDS011;59240;51.370;-0.486;2023-12-22T18:04:07;3.35;;;1.30;;
71423;SDS011;59240;51.370;-0.486;2023-12-22T18:09:06;5.15;;;2.42;;
71423;SDS011;59240;51.370;-0.486;2023-12-22T18:14:03;5.47;;;1.45;;
71423;SDS011;59240;51.370;-0.486;2023-12-22T18:19:00;7.05;;;1.45;;
71423;SDS011;59240;51.370;-0.486;2023-12-22T18:23:57;6.93;;;2.17;;
71423;SDS011;59240;51.370;-0.486;2023-12-22T18:28:54;4.10;;;1.60;;
71423;SDS011;59240;51.370;-0.486;2023-12-22T18:33:51;4.90;;;1.67;;
71423;SDS011;59240;51.370;-0.486;2023-12-22T18:38:48;5.53;;;1.05;;
71423;SDS011;59240;51.370;-0.486;2023-12-22T18:43:45;6.45;;;1.58;;
71423;SDS011;59240;51.370;-0.486;2023-12-22T18:48:45;3.00;;;1.50;;
71423;SDS011;59240;51.370;-0.486;2023-12-22T18:53:42;4.22;;;1.88;;
71423;SDS011;59240;51.370;-0.486;2023-12-22T18:58:39;3.40;;;1.88;;
71423;SDS011;59240;51.370;-0.486;2023-12-22T19:03:36;3.75;;;1.38;;
71423;SDS011;59240;51.370;-0.486;2023-12-22T19:08:33;3.08;;;1.80;;
71423;SDS011;59240;51.370;-0.486;2023-12-22T19:13:35;7.00;;;2.22;;
71423;SDS011;59240;51.370;-0.486;2023-12-22T19:19:10;3.65;;;1.25;;
71423;SDS011;59240;51.370;-0.486;2023-12-22T19:24:48;4.30;;;1.55;;
71423;SDS011;59240;51.370;-0.486;2023-12-22T19:30:31;2.63;;;0.82;;
71423;SDS011;59240;51.370;-0.486;2023-12-22T19:36:22;4.82;;;1.17;;
71423;SDS011;59240;51.370;-0.486;2023-12-22T19:41:19;1.98;;;0.80;;
71423;SDS011;59240;51.370;-0.486;2023-12-22T19:46:22;4.57;;;1.23;;
71423;SDS011;59240;51.370;-0.486;2023-12-22T19:51:59;5.85;;;1.73;;
71423;SDS011;59240;51.370;-0.486;2023-12-22T19:57:35;4.90;;;1.38;;
71423;SDS011;59240;51.370;-0.486;2023-12-22T20:02:55;2.50;;;0.65;;
71423;SDS011;59240;51.370;-0.486;2023-12-22T20:07:52;3.63;;;0.95;;
71423;SDS011;59240;51.370;-0.486;2023-12-22T20:13:45;3.25;;;1.10;;
71423;SDS011;59240;51.370;-0.486;2023-12-22T20:19:28;3.58;;;1.13;;
71423;SDS011;59240;51.370;-0.486;2023-12-22T20:25:16;3.58;;;0.57;;
71423;SDS011;59240;51.370;-0.486;2023-12-22T20:30:56;4.03;;;1.13;;
71423;SDS011;59240;51.370;-0.486;2023-12-22T20:35:54;2.22;;;0.95;;
71423;SDS011;59240;51.370;-0.486;2023-12-22T20:41:33;4.40;;;1.10;;
71423;SDS011;59240;51.370;-0.486;2023-12-22T20:46:30;2.63;;;0.75;;
71423;SDS011;59240;51.370;-0.486;2023-12-22T20:52:09;3.25;;;0.90;;
71423;SDS011;59240;51.370;-0.486;2023-12-22T20:57:51;3.78;;;0.75;;
71423;SDS011;59240;51.370;-0.486;2023-12-22T21:09:07;3.95;;;1.70;;
71423;SDS011;59240;51.370;-0.486;2023-12-22T21:14:46;3.67;;;1.30;;
71423;SDS011;59240;51.370;-0.486;2023-12-22T21:20:24;2.83;;;1.33;;
71423;SDS011;59240;51.370;-0.486;2023-12-22T21:26:04;7.53;;;2.40;;
71423;SDS011;59240;51.370;-0.486;2023-12-22T21:31:05;4.80;;;1.40;;
71423;SDS011;59240;51.370;-0.486;2023-12-22T21:41:38;5.57;;;1.85;;
71423;SDS011;59240;51.370;-0.486;2023-12-22T21:46:41;4.05;;;1.10;;
71423;SDS011;59240;51.370;-0.486;2023-12-22T21:52:20;3.67;;;1.70;;
71423;SDS011;59240;51.370;-0.486;2023-12-22T21:57:57;6.00;;;1.75;;
71423;SDS011;59240;51.370;-0.486;2023-12-22T22:02:55;2.20;;;1.05;;
71423;SDS011;59240;51.370;-0.486;2023-12-22T22:07:56;6.00;;;1.20;;
71423;SDS011;59240;51.370;-0.486;2023-12-22T22:13:34;8.07;;;2.20;;
71423;SDS011;59240;51.370;-0.486;2023-12-22T22:18:51;2.58;;;0.88;;
71423;SDS011;59240;51.370;-0.486;2023-12-22T22:30:01;2.15;;;0.82;;
71423;SDS011;59240;51.370;-0.486;2023-12-22T22:35:43;4.10;;;0.88;;
71423;SDS011;59240;51.370;-0.486;2023-12-22T22:41:09;3.10;;;1.10;;
71423;SDS011;59240;51.370;-0.486;2023-12-22T22:46:45;2.88;;;0.80;;
71423;SDS011;59240;51.370;-0.486;2023-12-22T22:52:25;4.07;;;0.57;;
71423;SDS011;59240;51.370;-0.486;2023-12-22T22:58:07;11.75;;;1.55;;
71423;SDS011;59240;51.370;-0.486;2023-12-22T23:03:47;6.35;;;1.30;;
71423;SDS011;59240;51.370;-0.486;2023-12-22T23:09:23;2.75;;;1.23;;
71423;SDS011;59240;51.370;-0.486;2023-12-22T23:14:20;5.45;;;1.20;;
71423;SDS011;59240;51.370;-0.486;2023-12-22T23:19:59;6.68;;;1.70;;
71423;SDS011;59240;51.370;-0.486;2023-12-22T23:24:57;4.40;;;1.23;;
71423;SDS011;59240;51.370;-0.486;2023-12-22T23:30:34;4.93;;;1.33;;
71423;SDS011;59240;51.370;-0.486;2023-12-22T23:35:50;8.43;;;1.73;;
71423;SDS011;59240;51.370;-0.486;2023-12-22T23:41:27;3.17;;;1.00;;
71423;SDS011;59240;51.370;-0.486;2023-12-22T23:47:14;3.38;;;0.85;;
71423;SDS011;59240;51.370;-0.486;2023-12-22T23:52:51;4.18;;;1.67;;
71423;SDS011;59240;51.370;-0.486;2023-12-22T23:58:31;5.10;;;1.30;;
